Terminal Aerodrome Forecast
Issued by NWS Cleveland, OH

Home | Current Version | Previous Version | Graphics & Text | Print | Product List | Glossary On
Versions: 1 2 3 4 5 6 7 8 9 10 11 12 13 14 15 16
000
FTUS41 KCLE 211730
TAFERI
TAF
KERI 211730Z 2118/2218 28010KT P6SM FEW040 BKN250
     FM220300 24006KT P6SM VCSH SCT020 OVC040
     FM220800 22006KT P6SM BKN040=

USA.gov is the U.S. government's official web portal to all federal, state and local government web resources and services.